Terminal Aerodrome Forecast
Issued by NWS

Home | Current Version | Previous Version | Text Only | Print | Product List | Glossary On
Versions: 1 2 3 4 5 6 7 8 9 10 11 12 13 14
475
FTUS46 KEKA 260520
TAFUKI
TAF
KUKI 260520Z 2606/2706 VRB03KT P6SM SCT025
     FM262000 28011KT P6SM VCSH BKN040
     FM270300 31007KT P6SM -SHRA OVC050=

USA.gov is the U.S. government's official web portal to all federal, state and local government web resources and services.